Time;durP1;ratioP1;P1;durP2;ratioP2;P2;SDS_P1;SDS_P2;PMS_P1;PMS_P2;Temp;Humidity;BMP_temperature;BMP_pressure;BME280_temperature;BME280_humidity;BME280_pressure;Samples;Min_cycle;Max_cycle;Signal;HPM_P1;HPM_P2
2022/09/29 00:00:34;;;;;;;5.22;3.88;;;;;;;6.87;86.73;99899.00;5010624;28;20052;-75
2022/09/29 00:02:59;;;;;;;6.65;4.15;;;;;;;6.89;86.87;99899.81;5008373;28;20571;-75
2022/09/29 00:05:25;;;;;;;5.43;4.07;;;;;;;6.89;86.89;99905.84;5010674;28;20780;-74
2022/09/29 00:07:50;;;;;;;6.13;4.43;;;;;;;6.89;86.94;99904.97;5011216;28;20038;-74
2022/09/29 00:10:15;;;;;;;6.40;4.38;;;;;;;6.89;86.88;99910.16;5007775;28;20463;-74
2022/09/29 00:12:40;;;;;;;5.28;3.70;;;;;;;6.89;86.74;99902.41;5012128;28;20037;-75
2022/09/29 00:15:06;;;;;;;6.50;4.20;;;;;;;6.86;86.85;99905.91;5012184;28;20018;-75
2022/09/29 00:17:32;;;;;;;6.00;4.03;;;;;;;6.83;86.51;99901.66;5007392;28;20481;-74
2022/09/29 00:19:57;;;;;;;6.28;4.38;;;;;;;6.80;86.32;99900.91;5015141;28;20029;-74
2022/09/29 00:22:23;;;;;;;5.47;4.20;;;;;;;6.79;86.36;99905.22;5004656;28;20104;-75
2022/09/29 00:24:49;;;;;;;6.50;4.15;;;;;;;6.78;86.66;99898.34;5013409;28;20026;-74
2022/09/29 00:27:16;;;;;;;6.18;4.22;;;;;;;6.78;87.00;99898.34;5001364;28;20030;-75
2022/09/29 00:29:41;;;;;;;6.70;4.40;;;;;;;6.78;87.16;99894.91;5010629;28;20021;-75
2022/09/29 00:32:06;;;;;;;7.63;4.68;;;;;;;6.77;86.91;99894.06;5010374;28;20036;-75
2022/09/29 00:34:31;;;;;;;7.68;4.38;;;;;;;6.78;87.12;99898.34;5005220;28;20021;-75
2022/09/29 00:36:57;;;;;;;7.72;4.32;;;;;;;6.76;86.59;99889.78;5013747;28;20084;-75
2022/09/29 00:39:22;;;;;;;6.85;4.30;;;;;;;6.74;85.60;99891.56;5014183;28;20018;-75
2022/09/29 00:41:47;;;;;;;6.10;4.30;;;;;;;6.69;84.82;99896.00;4997807;28;20022;-75
2022/09/29 00:44:12;;;;;;;6.35;4.32;;;;;;;6.65;85.30;99896.97;4998000;28;20022;-75
2022/09/29 00:47:00;;;;;;;5.50;4.25;;;;;;;6.61;84.94;99891.00;5006835;28;20527;-74
2022/09/29 00:49:28;;;;;;;6.38;4.45;;;;;;;6.55;84.73;99891.19;5009012;28;20029;-75
2022/09/29 00:52:04;;;;;;;7.13;4.30;;;;;;;6.50;84.67;99887.84;5002553;28;20088;-74
2022/09/29 00:54:36;;;;;;;5.50;4.18;;;;;;;6.47;84.38;99890.50;5010863;28;20034;-75
2022/09/29 00:57:05;;;;;;;6.75;4.45;;;;;;;6.44;84.54;99893.16;5008217;28;20026;-75
2022/09/29 00:59:47;;;;;;;5.85;4.55;;;;;;;6.41;84.81;99891.50;5006184;28;20108;-75
2022/09/29 01:02:14;;;;;;;6.43;4.43;;;;;;;6.37;84.25;99902.78;5008409;28;20495;-75
2022/09/29 01:04:40;;;;;;;7.47;4.55;;;;;;;6.33;84.31;99896.00;5005669;28;20113;-74
2022/09/29 01:07:08;;;;;;;5.47;4.30;;;;;;;6.29;84.52;99887.47;5006786;28;20607;-74
2022/09/29 01:09:36;;;;;;;6.18;3.97;;;;;;;6.26;84.26;99897.03;5005070;28;20038;-75
2022/09/29 01:12:02;;;;;;;5.20;3.55;;;;;;;6.22;83.91;99894.53;5004960;28;20022;-75
2022/09/29 01:14:30;;;;;;;6.03;3.90;;;;;;;6.20;83.80;99898.03;5007698;28;20037;-75
2022/09/29 01:16:56;;;;;;;5.05;3.67;;;;;;;6.15;83.01;99895.53;5004995;28;20030;-75
2022/09/29 01:19:48;;;;;;;6.18;3.75;;;;;;;6.15;83.01;99897.28;5004296;28;20480;-74
2022/09/29 01:22:55;;;;;;;6.75;2.60;;;;;;;6.08;83.08;99891.41;5004947;28;20041;-75
2022/09/29 01:25:58;;;;;;;3.53;2.78;;;;;;;6.05;83.35;99896.63;5002246;28;20061;-74
2022/09/29 01:29:08;;;;;;;3.85;2.45;;;;;;;6.01;82.95;99898.44;5003288;28;20397;-74
2022/09/29 01:31:37;;;;;;;4.78;2.40;;;;;;;5.97;82.96;99903.69;4991486;28;20548;-74
2022/09/29 01:34:28;;;;;;;3.60;2.78;;;;;;;5.95;83.18;99905.44;5007674;28;20052;-74
2022/09/29 01:37:02;;;;;;;5.07;2.80;;;;;;;5.89;83.19;99903.84;5005018;28;20029;-74
2022/09/29 01:39:48;;;;;;;4.97;3.38;;;;;;;5.85;83.92;99903.03;5007826;28;20481;-74
2022/09/29 01:42:26;;;;;;;4.70;3.40;;;;;;;5.81;83.59;99898.81;5007066;28;20037;-74
2022/09/29 01:45:00;;;;;;;4.50;3.40;;;;;;;5.79;83.84;99908.38;5001745;28;20045;-74
2022/09/29 01:47:35;;;;;;;5.45;3.35;;;;;;;5.75;82.95;99904.13;5007229;28;20066;-74
2022/09/29 01:50:07;;;;;;;4.68;3.60;;;;;;;5.70;83.67;99904.25;5002181;28;20057;-75
2022/09/29 01:52:41;;;;;;;6.03;3.65;;;;;;;5.70;83.89;99900.78;5008761;28;20473;-75
2022/09/29 01:55:12;;;;;;;5.60;3.63;;;;;;;5.70;83.88;99900.78;5004995;28;20034;-74
2022/09/29 01:57:52;;;;;;;5.75;3.83;;;;;;;5.71;84.28;99908.53;5006283;28;20030;-74
2022/09/29 02:00:19;;;;;;;4.88;3.50;;;;;;;5.72;84.23;99910.19;5006404;28;20029;-74
2022/09/29 02:02:53;;;;;;;7.18;3.70;;;;;;;5.73;84.56;99905.91;5007932;28;20427;-74
2022/09/29 02:05:30;;;;;;;5.00;3.53;;;;;;;5.73;84.29;99905.91;4993338;28;20021;-74
2022/09/29 02:08:01;;;;;;;5.65;3.85;;;;;;;5.72;84.28;99906.78;5007339;28;20037;-74
2022/09/29 02:10:34;;;;;;;5.55;3.97;;;;;;;5.71;83.79;99907.66;5007852;28;20057;-74
2022/09/29 02:13:04;;;;;;;5.20;3.97;;;;;;;5.69;83.94;99909.41;5009259;28;20030;-74
2022/09/29 02:15:33;;;;;;;6.60;4.35;;;;;;;5.68;84.12;99907.72;5005471;28;20116;-75
2022/09/29 02:18:06;;;;;;;7.22;4.38;;;;;;;5.67;84.53;99906.88;5001744;28;20445;-74
2022/09/29 02:20:31;;;;;;;5.60;4.10;;;;;;;5.66;84.39;99914.63;5006956;28;20033;-74
2022/09/29 02:22:57;;;;;;;5.75;4.43;;;;;;;5.64;84.52;99906.94;5007105;28;20030;-74
2022/09/29 02:25:22;;;;;;;6.38;4.28;;;;;;;5.64;84.01;99916.44;5004414;28;20447;-74
2022/09/29 02:27:49;;;;;;;5.20;4.00;;;;;;;5.60;84.23;99915.63;5006850;28;20038;-75
2022/09/29 02:30:15;;;;;;;7.72;4.45;;;;;;;5.56;84.26;99914.84;5006563;28;20034;-74
2022/09/29 02:32:41;;;;;;;6.43;4.22;;;;;;;5.52;84.18;99918.34;5004390;28;20059;-74
2022/09/29 02:35:10;;;;;;;4.88;3.72;;;;;;;5.53;84.90;99917.47;5005817;28;20026;-74
2022/09/29 02:37:38;;;;;;;5.90;3.85;;;;;;;5.56;84.57;99917.41;5006442;28;20041;-74
2022/09/29 02:40:17;;;;;;;5.05;3.80;;;;;;;5.53;84.25;99920.06;5005491;28;20464;-74
2022/09/29 02:42:57;;;;;;;5.63;3.85;;;;;;;5.52;83.96;99909.78;5003982;28;20080;-74
2022/09/29 02:45:46;;;;;;;5.72;3.90;;;;;;;5.52;84.03;99914.94;5000396;28;20053;-75
2022/09/29 02:48:56;;;;;;;5.93;4.45;;;;;;;5.50;83.98;99914.09;5007281;28;20033;-74
2022/09/29 02:51:30;;;;;;;6.65;4.30;;;;;;;5.48;83.96;99914.13;5004887;28;20064;-74
2022/09/29 02:54:31;;;;;;;5.78;4.25;;;;;;;5.47;83.88;99909.84;5003740;28;20049;-74
2022/09/29 02:57:05;;;;;;;6.83;4.17;;;;;;;5.45;84.08;99916.78;5005443;28;20037;-75
2022/09/29 02:59:59;;;;;;;5.07;3.70;;;;;;;5.41;83.66;99915.13;5006592;28;20113;-74
2022/09/29 03:02:27;;;;;;;6.00;4.13;;;;;;;5.36;83.33;99912.66;5007570;28;20041;-74
2022/09/29 03:04:52;;;;;;;5.50;3.90;;;;;;;5.32;83.73;99917.00;5002881;28;20045;-74
2022/09/29 03:07:19;;;;;;;4.80;3.63;;;;;;;5.28;83.53;99910.22;5004144;28;20029;-74
2022/09/29 03:09:44;;;;;;;5.80;3.97;;;;;;;5.28;83.60;99914.50;5005315;28;20112;-74
2022/09/29 03:12:09;;;;;;;5.70;3.92;;;;;;;5.24;83.94;99918.03;5005165;28;20536;-74
2022/09/29 03:14:35;;;;;;;5.68;3.88;;;;;;;5.24;84.23;99913.72;5006478;28;20033;-74
2022/09/29 03:17:00;;;;;;;6.53;3.63;;;;;;;5.23;84.13;99914.59;5004489;28;20038;-74
2022/09/29 03:19:25;;;;;;;5.97;3.17;;;;;;;5.21;83.91;99907.78;5004521;28;20034;-74
2022/09/29 03:21:50;;;;;;;3.58;2.88;;;;;;;5.19;84.06;99907.81;5003727;28;20113;-75
2022/09/29 03:24:16;;;;;;;4.93;3.00;;;;;;;5.19;83.66;99910.38;5006598;28;20089;-74
2022/09/29 03:26:41;;;;;;;4.35;3.15;;;;;;;5.18;84.37;99907.84;5005040;28;20033;-74
2022/09/29 03:29:07;;;;;;;5.32;3.60;;;;;;;5.18;84.92;99903.53;5004603;28;20041;-74
2022/09/29 03:31:32;;;;;;;7.22;3.38;;;;;;;5.19;84.94;99909.53;5003538;28;20468;-74
2022/09/29 03:33:57;;;;;;;5.78;3.80;;;;;;;5.19;84.80;99902.66;5006414;28;20193;-74
2022/09/29 03:36:22;;;;;;;6.10;4.20;;;;;;;5.18;84.78;99905.25;4996322;28;20145;-74
2022/09/29 03:38:48;;;;;;;6.25;4.45;;;;;;;5.18;84.58;99905.25;5008280;28;20413;-74
2022/09/29 03:41:14;;;;;;;7.30;4.28;;;;;;;5.18;84.84;99908.69;5005977;28;20030;-74
2022/09/29 03:43:39;;;;;;;6.10;4.47;;;;;;;5.18;84.48;99913.84;5008410;28;20061;-74
2022/09/29 03:46:05;;;;;;;7.20;4.40;;;;;;;5.17;84.27;99909.56;5005772;28;20102;-74
2022/09/29 03:48:30;;;;;;;6.88;4.78;;;;;;;5.14;84.27;99913.06;5007754;28;20026;-74
2022/09/29 03:50:56;;;;;;;6.95;4.57;;;;;;;5.13;84.26;99910.47;5006391;28;20038;-74
2022/09/29 03:53:22;;;;;;;7.00;4.85;;;;;;;5.11;84.15;99910.53;5005318;28;20048;-74
2022/09/29 03:55:48;;;;;;;5.97;4.80;;;;;;;5.09;84.46;99908.88;5007560;28;20395;-74
2022/09/29 03:58:14;;;;;;;5.55;4.18;;;;;;;5.07;84.47;99906.28;5007380;28;20535;-74
2022/09/29 04:00:40;;;;;;;6.50;4.47;;;;;;;5.09;84.58;99914.03;5006654;28;20084;-74
2022/09/29 04:03:05;;;;;;;7.35;5.10;;;;;;;5.09;84.76;99917.44;5006823;28;20034;-74
2022/09/29 04:05:31;;;;;;;6.82;5.05;;;;;;;5.07;84.78;99920.94;5007066;28;20033;-74
2022/09/29 04:07:56;;;;;;;6.22;4.60;;;;;;;5.04;85.57;99924.38;5006545;28;20092;-74
2022/09/29 04:10:22;;;;;;;8.00;4.85;;;;;;;5.05;85.19;99920.09;5008849;28;20033;-74
2022/09/29 04:12:47;;;;;;;6.05;4.57;;;;;;;5.05;85.25;99927.84;5011494;28;20030;-74
2022/09/29 04:15:12;;;;;;;7.43;5.22;;;;;;;5.04;84.96;99920.97;5010184;28;20061;-74
2022/09/29 04:17:37;;;;;;;7.25;5.07;;;;;;;5.03;85.04;99935.59;5009218;28;20156;-74
2022/09/29 04:20:03;;;;;;;9.30;5.30;;;;;;;5.02;85.13;99928.75;4995421;28;20038;-74
2022/09/29 04:22:28;;;;;;;7.85;5.22;;;;;;;5.00;84.55;99926.19;4997455;28;20037;-74
2022/09/29 04:24:53;;;;;;;8.63;5.53;;;;;;;4.99;84.76;99926.22;5004449;28;20033;-74
2022/09/29 04:27:19;;;;;;;7.07;5.43;;;;;;;4.98;84.98;99938.25;5007019;28;20112;-74
2022/09/29 04:29:44;;;;;;;7.80;5.40;;;;;;;4.97;84.95;99931.38;5003837;28;20543;-74
2022/09/29 04:32:10;;;;;;;8.55;5.30;;;;;;;4.95;84.63;99933.13;5007511;28;20040;-74
2022/09/29 04:34:35;;;;;;;6.88;5.30;;;;;;;4.93;85.24;99934.91;4991120;28;20036;-74
2022/09/29 04:37:01;;;;;;;6.88;5.00;;;;;;;4.95;85.15;99940.88;5004712;28;20042;-74
2022/09/29 04:39:27;;;;;;;7.15;4.88;;;;;;;4.94;85.57;99935.75;5004731;28;20037;-74
2022/09/29 04:41:52;;;;;;;7.72;5.25;;;;;;;4.96;85.05;99944.31;5009814;28;20041;-74
2022/09/29 04:44:21;;;;;;;8.25;5.60;;;;;;;4.96;85.27;99944.31;5010680;28;20053;-74
2022/09/29 04:46:48;;;;;;;7.60;5.47;;;;;;;4.94;84.84;99949.50;5010946;28;20087;-74
2022/09/29 04:49:13;;;;;;;7.78;5.65;;;;;;;4.93;84.85;99949.50;5012055;28;20381;-74
2022/09/29 04:51:38;;;;;;;6.82;5.30;;;;;;;4.91;84.81;99946.97;5004402;28;20038;-74
2022/09/29 04:54:04;;;;;;;6.93;5.15;;;;;;;4.90;84.44;99950.44;5007516;28;20034;-74
2022/09/29 04:56:30;;;;;;;7.40;5.35;;;;;;;4.87;84.95;99950.47;4989860;28;20018;-74
2022/09/29 04:58:57;;;;;;;8.70;5.10;;;;;;;4.85;84.74;99959.94;5007354;28;20045;-74
2022/09/29 05:01:23;;;;;;;5.97;4.55;;;;;;;4.83;84.36;99951.38;4991194;28;21169;-74
2022/09/29 05:03:48;;;;;;;7.78;5.18;;;;;;;4.82;84.38;99953.13;5006265;28;20357;-74
2022/09/29 05:06:13;;;;;;;6.55;4.63;;;;;;;4.79;84.25;99958.31;5009495;28;20029;-74
2022/09/29 05:08:38;;;;;;;8.23;4.90;;;;;;;4.77;84.51;99959.25;5007007;28;20064;-74
2022/09/29 05:11:06;;;;;;;7.03;4.55;;;;;;;4.74;84.23;99960.13;5006178;28;20087;-74
2022/09/29 05:13:31;;;;;;;7.22;4.88;;;;;;;4.70;84.18;99964.47;5006567;28;20199;-74
2022/09/29 05:15:57;;;;;;;7.60;5.22;;;;;;;4.69;84.43;99962.78;5005193;28;20528;-74
2022/09/29 05:18:23;;;;;;;6.30;4.60;;;;;;;4.66;84.50;99962.81;5007125;28;20056;-74
2022/09/29 05:20:48;;;;;;;6.30;4.75;;;;;;;4.64;84.60;99964.56;5010327;28;20034;-74
2022/09/29 05:23:14;;;;;;;5.97;4.03;;;;;;;4.65;84.77;99965.44;5011745;28;20225;-74
2022/09/29 05:25:39;;;;;;;5.72;4.07;;;;;;;4.63;84.31;99965.44;4993039;28;20393;-74
2022/09/29 05:28:04;;;;;;;7.38;4.57;;;;;;;4.62;85.06;99978.34;5009015;28;20068;-74
2022/09/29 05:30:30;;;;;;;7.30;4.80;;;;;;;4.61;85.28;99968.91;5010077;28;20244;-74
2022/09/29 05:32:55;;;;;;;6.70;4.88;;;;;;;4.61;85.97;99977.50;5012264;28;20076;-74
2022/09/29 05:35:20;;;;;;;8.43;5.07;;;;;;;4.62;85.66;99976.63;5006547;28;20034;-74
2022/09/29 05:37:45;;;;;;;6.95;5.30;;;;;;;4.64;86.03;99982.59;5005811;28;20030;-74
2022/09/29 05:40:11;;;;;;;7.47;4.93;;;;;;;4.65;85.86;99986.88;5013342;28;20025;-74
2022/09/29 05:42:36;;;;;;;7.05;5.32;;;;;;;4.65;85.76;99992.03;5012157;28;20026;-74
2022/09/29 05:45:01;;;;;;;9.93;5.53;;;;;;;4.66;85.40;99993.72;5008900;28;20082;-75
2022/09/29 05:47:26;;;;;;;7.05;5.32;;;;;;;4.66;84.85;99998.88;5011835;28;20041;-75
2022/09/29 05:49:52;;;;;;;9.13;5.70;;;;;;;4.65;85.05;99991.19;5007846;28;20036;-74
2022/09/29 05:52:17;;;;;;;8.07;5.38;;;;;;;4.64;84.54;99990.31;5012743;28;20033;-74
2022/09/29 05:54:42;;;;;;;7.78;5.63;;;;;;;4.64;84.80;99994.63;5009392;28;20034;-74
2022/09/29 05:57:07;;;;;;;8.32;5.70;;;;;;;4.64;84.83;99998.06;4995352;28;20535;-74
2022/09/29 05:59:33;;;;;;;8.00;5.55;;;;;;;4.63;84.24;100004.06;4992258;28;20048;-74
2022/09/29 06:01:58;;;;;;;7.78;5.53;;;;;;;4.63;84.05;100004.06;5010842;28;20034;-74
2022/09/29 06:04:23;;;;;;;8.77;5.73;;;;;;;4.61;84.40;100010.97;5012342;28;20032;-74
2022/09/29 06:06:48;;;;;;;8.15;5.65;;;;;;;4.61;84.94;100007.56;5011059;28;20125;-75
2022/09/29 06:09:14;;;;;;;7.82;5.82;;;;;;;4.64;84.82;100005.78;5012583;28;20026;-75
2022/09/29 06:11:39;;;;;;;7.72;5.45;;;;;;;4.64;85.33;100005.78;5007678;28;20029;-74
2022/09/29 06:14:05;;;;;;;7.82;5.35;;;;;;;4.67;85.40;100010.91;5011705;28;20240;-74
2022/09/29 06:16:31;;;;;;;6.78;5.10;;;;;;;4.71;84.96;100009.13;5005512;28;20052;-74
2022/09/29 06:18:58;;;;;;;7.53;5.07;;;;;;;4.74;85.34;100016.81;5006553;28;20030;-74
2022/09/29 06:21:26;;;;;;;10.30;5.35;;;;;;;4.77;85.49;100016.75;5003819;28;20033;-74
2022/09/29 06:23:53;;;;;;;7.80;5.63;;;;;;;4.81;85.42;100020.13;5012958;28;20477;-74
2022/09/29 06:26:21;;;;;;;7.80;5.70;;;;;;;4.86;85.78;100014.06;5009621;28;20061;-74
2022/09/29 06:28:46;;;;;;;8.20;5.93;;;;;;;4.92;85.73;100018.25;5011652;28;20035;-74
2022/09/29 06:31:14;;;;;;;10.90;6.07;;;;;;;4.96;85.54;100022.47;5008466;28;20503;-74
2022/09/29 06:33:40;;;;;;;9.43;6.40;;;;;;;5.00;85.97;100024.13;5008025;28;20030;-73
2022/09/29 06:38:56;;;;;;;8.38;5.85;;;;;;;5.13;86.37;100034.25;4996618;28;20070;-75
2022/09/29 06:41:21;;;;;;;8.75;6.22;;;;;;;5.16;86.50;100027.31;5009332;28;20024;-74
2022/09/29 06:43:46;;;;;;;9.35;6.32;;;;;;;5.22;86.68;100036.69;5004503;28;20052;-74
2022/09/29 06:46:11;;;;;;;9.05;6.38;;;;;;;5.28;86.72;100039.19;5005909;28;20062;-74
2022/09/29 06:48:37;;;;;;;10.30;6.97;;;;;;;5.33;86.77;100036.50;4980191;28;20119;-74
2022/09/29 06:51:07;;;;;;;9.50;6.72;;;;;;;5.39;87.29;100035.53;4997808;28;20835;-75
2022/09/29 06:53:32;;;;;;;9.68;7.18;;;;;;;5.43;87.19;100037.19;5008426;28;20185;-75
2022/09/29 06:55:59;;;;;;;10.23;6.60;;;;;;;5.48;87.64;100040.53;5010440;28;20116;-75
2022/09/29 06:58:25;;;;;;;12.05;7.10;;;;;;;5.52;87.55;100039.59;5008241;28;20574;-75
2022/09/29 07:00:50;;;;;;;11.30;7.30;;;;;;;5.57;87.80;100044.69;5007683;28;20038;-74
2022/09/29 07:03:16;;;;;;;11.07;7.88;;;;;;;5.62;87.63;100051.47;5006005;28;20030;-75
2022/09/29 07:05:42;;;;;;;9.52;7.32;;;;;;;5.68;87.78;100053.09;5002353;28;20087;-75
2022/09/29 07:08:07;;;;;;;10.90;7.38;;;;;;;5.76;88.07;100058.13;5004395;28;20473;-75
2022/09/29 07:10:33;;;;;;;10.32;7.43;;;;;;;5.79;88.06;100050.31;5011386;28;20040;-75
2022/09/29 07:12:58;;;;;;;11.38;7.43;;;;;;;5.83;87.93;100057.09;4988680;28;20062;-75
2022/09/29 07:15:30;;;;;;;11.48;7.68;;;;;;;5.88;88.33;100052.72;5006552;28;20037;-75
2022/09/29 07:17:59;;;;;;;11.73;7.53;;;;;;;5.95;88.19;100055.19;5009567;28;20038;-75
2022/09/29 07:20:25;;;;;;;11.60;7.40;;;;;;;6.00;88.43;100059.41;5025836;28;20119;-75
2022/09/29 07:22:50;;;;;;;13.70;8.23;;;;;;;6.05;88.59;100062.75;5014385;28;20068;-76
2022/09/29 07:25:16;;;;;;;12.43;7.50;;;;;;;6.11;88.22;100064.38;5011613;28;20064;-75
2022/09/29 07:27:41;;;;;;;11.82;7.97;;;;;;;6.17;88.55;100066.81;5010642;28;20017;-75
2022/09/29 07:30:07;;;;;;;11.48;8.25;;;;;;;6.24;88.34;100064.94;5011085;28;20029;-75
2022/09/29 07:32:32;;;;;;;13.07;8.23;;;;;;;6.30;88.77;100071.75;5010201;28;20393;-75
2022/09/29 07:34:58;;;;;;;10.35;7.55;;;;;;;6.35;88.82;100067.31;4995501;28;20038;-75
2022/09/29 07:37:24;;;;;;;11.95;8.18;;;;;;;6.40;88.47;100073.25;5011187;28;20081;-75
2022/09/29 07:39:50;;;;;;;12.38;8.20;;;;;;;6.44;88.32;100067.13;5009363;28;20377;-75
2022/09/29 07:42:17;;;;;;;12.32;8.57;;;;;;;6.49;88.75;100073.03;5010003;28;20032;-75
2022/09/29 07:44:42;;;;;;;12.40;8.65;;;;;;;6.55;88.62;100076.38;5006418;28;20069;-76
2022/09/29 07:47:07;;;;;;;12.45;8.32;;;;;;;6.61;88.08;100076.25;5004406;28;20054;-75
2022/09/29 07:49:33;;;;;;;12.73;8.25;;;;;;;6.67;88.34;100086.44;5006285;28;20045;-74
2022/09/29 07:51:58;;;;;;;12.20;8.57;;;;;;;6.71;88.49;100077.75;5002260;28;20146;-75
2022/09/29 07:54:23;;;;;;;11.85;8.32;;;;;;;6.76;88.46;100091.44;4997068;28;20022;-75
2022/09/29 07:56:48;;;;;;;12.07;8.45;;;;;;;6.81;88.59;100089.59;5006263;28;20119;-75
2022/09/29 07:59:14;;;;;;;11.70;8.38;;;;;;;6.89;88.69;100085.97;5004067;28;20056;-75
2022/09/29 08:01:39;;;;;;;14.60;8.95;;;;;;;6.94;88.91;100089.31;5003326;28;20025;-75
2022/09/29 08:04:05;;;;;;;13.02;8.68;;;;;;;7.01;88.57;100093.44;5004833;28;20060;-75
2022/09/29 08:06:32;;;;;;;14.43;8.73;;;;;;;7.06;88.73;100089.03;5006477;28;20022;-75
2022/09/29 08:09:00;;;;;;;14.30;8.75;;;;;;;7.10;88.28;100093.25;4990729;28;20508;-76
2022/09/29 08:11:26;;;;;;;12.05;8.48;;;;;;;7.16;88.28;100100.00;5010362;28;20061;-75
2022/09/29 08:13:52;;;;;;;12.90;8.93;;;;;;;7.20;88.78;100096.47;5004162;28;20041;-75
2022/09/29 08:16:17;;;;;;;13.07;8.57;;;;;;;7.27;88.42;100112.69;5006636;28;20037;-75
2022/09/29 08:18:43;;;;;;;12.40;8.43;;;;;;;7.33;88.62;100106.50;5008389;28;20449;-75
2022/09/29 08:21:10;;;;;;;14.13;9.60;;;;;;;7.38;88.67;100110.69;5006681;28;20034;-75
2022/09/29 08:23:41;;;;;;;12.77;8.98;;;;;;;7.44;88.85;100113.13;5009242;28;20643;-75
2022/09/29 08:26:18;;;;;;;15.18;8.90;;;;;;;7.52;88.91;100117.25;4991871;28;20033;-75
2022/09/29 08:28:44;;;;;;;12.50;8.27;;;;;;;7.58;88.78;100122.28;5009328;28;20033;-75
2022/09/29 08:31:19;;;;;;;14.82;9.45;;;;;;;7.65;89.09;100123.84;5007501;28;20091;-75
2022/09/29 08:33:45;;;;;;;14.52;8.63;;;;;;;7.70;88.79;100121.97;4991765;28;20033;-75
2022/09/29 08:36:13;;;;;;;13.52;8.85;;;;;;;7.74;88.70;100121.00;5007923;28;20026;-75
2022/09/29 08:38:46;;;;;;;13.27;8.45;;;;;;;7.80;88.66;100117.41;5009341;28;20075;-75
2022/09/29 08:41:44;;;;;;;12.68;8.95;;;;;;;7.85;88.47;100125.06;5008835;28;20092;-75
2022/09/29 08:44:39;;;;;;;12.60;8.18;;;;;;;7.93;87.92;100130.88;5008594;28;20088;-75
2022/09/29 08:47:28;;;;;;;11.35;7.65;;;;;;;7.99;87.94;100133.34;5009133;28;20033;-75
2022/09/29 08:50:05;;;;;;;10.80;7.60;;;;;;;8.04;88.47;100131.44;5008849;28;20024;-74
2022/09/29 08:52:38;;;;;;;12.50;7.95;;;;;;;8.09;88.14;100133.06;5010107;28;20021;-74
2022/09/29 08:55:46;;;;;;;11.43;7.78;;;;;;;8.14;87.74;100132.06;5008585;28;20038;-74
2022/09/29 08:58:13;;;;;;;13.57;8.18;;;;;;;8.20;87.89;100133.63;4986583;28;20064;-74
2022/09/29 09:01:02;;;;;;;11.02;7.75;;;;;;;8.28;88.07;100139.47;5007820;28;20034;-73
2022/09/29 09:03:44;;;;;;;12.95;8.02;;;;;;;8.32;87.98;100137.63;5008773;28;20037;-74
2022/09/29 09:06:10;;;;;;;;;;;;;;;8.37;87.33;100140.94;5008395;28;20072;-74
2022/09/29 09:08:57;;;;;;;10.10;6.45;;;;;;;8.42;87.37;100141.69;5009201;28;20348;-74
2022/09/29 09:11:43;;;;;;;10.38;6.90;;;;;;;8.47;87.48;100149.31;5008839;28;20105;-73
2022/09/29 09:14:35;;;;;;;10.35;7.03;;;;;;;8.53;87.48;100144.00;4994777;28;20575;-73
2022/09/29 09:17:17;;;;;;;10.88;7.43;;;;;;;8.61;87.67;100147.19;5007125;28;20099;-73
2022/09/29 09:20:00;;;;;;;9.68;7.05;;;;;;;8.67;87.78;100145.34;5008118;28;20034;-74
2022/09/29 09:22:57;;;;;;;10.68;7.20;;;;;;;8.73;87.37;100148.59;5008226;28;20036;-75
2022/09/29 09:25:29;;;;;;;10.00;7.38;;;;;;;8.78;87.54;100151.06;5004284;28;20029;-74
2022/09/29 09:28:10;;;;;;;10.68;6.95;;;;;;;8.83;87.13;100151.78;5005523;28;20404;-73
2022/09/29 09:30:45;;;;;;;9.80;6.72;;;;;;;8.88;87.38;100152.47;4990647;28;20563;-74
2022/09/29 09:33:21;;;;;;;10.40;6.65;;;;;;;8.94;87.02;100148.84;5008207;28;20425;-74
2022/09/29 09:35:58;;;;;;;9.77;7.05;;;;;;;9.01;87.38;100146.94;5007870;28;20034;-74
2022/09/29 09:38:32;;;;;;;10.27;6.35;;;;;;;9.08;86.42;100149.28;5007559;28;20044;-74
2022/09/29 09:41:00;;;;;;;9.00;6.15;;;;;;;9.12;85.69;100142.25;5007086;28;20030;-77
2022/09/29 09:43:39;;;;;;;9.30;6.25;;;;;;;9.17;85.66;100148.16;5004619;28;20460;-74
2022/09/29 09:46:14;;;;;;;9.60;6.15;;;;;;;9.22;85.07;100148.00;5005263;28;20140;-75
2022/09/29 09:49:03;;;;;;;8.27;5.88;;;;;;;9.31;85.65;100149.47;5006193;28;20772;-75
2022/09/29 09:51:50;;;;;;;8.25;5.70;;;;;;;9.37;85.37;100157.06;5005710;28;20025;-74
2022/09/29 09:54:43;;;;;;;8.00;5.88;;;;;;;9.43;85.26;100151.66;5002026;28;20056;-75
2022/09/29 09:57:39;;;;;;;9.75;6.13;;;;;;;9.49;85.45;100156.66;4998726;28;20099;-75
2022/09/29 10:00:12;;;;;;;8.77;5.63;;;;;;;9.55;83.34;100155.59;5001749;28;20041;-75
2022/09/29 10:03:00;;;;;;;7.53;5.47;;;;;;;9.63;83.22;100157.94;5005560;28;20065;-76
2022/09/29 10:05:35;;;;;;;7.63;4.82;;;;;;;9.67;81.14;100167.34;5007073;28;20038;-76
2022/09/29 10:08:02;;;;;;;6.35;4.70;;;;;;;9.71;81.38;100162.00;5008560;28;20026;-76
2022/09/29 10:10:29;;;;;;;8.15;5.00;;;;;;;9.77;81.11;100171.31;5006285;28;20034;-75
2022/09/29 10:13:05;;;;;;;8.93;5.28;;;;;;;9.82;81.24;100163.41;5006778;28;20071;-75
2022/09/29 10:15:33;;;;;;;6.75;4.82;;;;;;;9.85;80.38;100158.94;5006470;28;20045;-75
2022/09/29 10:18:13;;;;;;;6.50;4.88;;;;;;;9.90;80.57;100166.56;5007027;28;20481;-75
2022/09/29 10:20:40;;;;;;;7.45;5.25;;;;;;;9.94;80.94;100167.31;4984833;28;20334;-75
2022/09/29 10:23:29;;;;;;;8.82;4.75;;;;;;;10.00;81.52;100173.16;5003966;28;20026;-75
2022/09/29 10:25:57;;;;;;;7.35;4.63;;;;;;;10.05;81.25;100167.81;5003639;28;20052;-75
2022/09/29 10:28:25;;;;;;;6.70;4.60;;;;;;;10.11;80.91;100170.19;5001105;28;21502;-75
2022/09/29 10:30:52;;;;;;;6.68;4.70;;;;;;;10.14;79.43;100174.44;5003651;28;20033;-75
2022/09/29 10:33:21;;;;;;;7.25;5.10;;;;;;;10.14;78.77;100174.44;5004837;28;20033;-75
2022/09/29 10:35:51;;;;;;;6.22;4.82;;;;;;;10.16;79.54;100173.47;5005029;28;20038;-75
2022/09/29 10:38:23;;;;;;;5.35;4.25;;;;;;;10.24;79.26;100181.00;5004624;28;20418;-76
2022/09/29 10:41:03;;;;;;;7.00;4.43;;;;;;;10.33;80.04;100180.66;5003154;28;20034;-75
2022/09/29 10:43:38;;;;;;;7.38;4.53;;;;;;;10.39;79.10;100178.78;5003040;28;20060;-75
2022/09/29 10:46:05;;;;;;;5.55;4.20;;;;;;;10.39;78.16;100179.66;5003665;28;20045;-75
2022/09/29 10:48:31;;;;;;;5.80;4.10;;;;;;;10.40;78.73;100181.34;4986459;28;20082;-76
2022/09/29 10:51:04;;;;;;;6.50;4.30;;;;;;;10.45;78.83;100184.63;5005245;28;20026;-75
2022/09/29 10:53:42;;;;;;;5.85;4.25;;;;;;;10.51;78.82;100182.72;5003338;28;20026;-75
2022/09/29 10:56:23;;;;;;;6.57;3.97;;;;;;;10.58;78.73;100184.19;5002489;28;20092;-75
2022/09/29 10:58:54;;;;;;;5.78;3.65;;;;;;;10.65;78.11;100182.22;5002269;28;20048;-75
2022/09/29 11:01:20;;;;;;;6.20;3.90;;;;;;;10.66;76.86;100184.75;5005604;28;20030;-75
2022/09/29 11:03:54;;;;;;;5.80;3.67;;;;;;;10.72;75.80;100187.13;5003554;28;20284;-74
2022/09/29 11:06:26;;;;;;;6.32;3.92;;;;;;;10.78;76.88;100188.66;5006023;28;20029;-75
2022/09/29 11:09:00;;;;;;;5.90;4.07;;;;;;;10.81;76.04;100190.28;4985831;28;20041;-75
2022/09/29 11:11:35;;;;;;;6.28;4.13;;;;;;;10.81;75.77;100190.28;5001891;28;20029;-75
2022/09/29 11:14:00;;;;;;;6.38;4.20;;;;;;;10.81;75.88;100192.91;5006967;28;20053;-75
2022/09/29 11:16:36;;;;;;;5.75;3.80;;;;;;;10.82;76.55;100187.66;5003635;28;20136;-75
2022/09/29 11:19:11;;;;;;;5.65;3.80;;;;;;;10.87;76.50;100198.72;5003226;28;20029;-76
2022/09/29 11:21:58;;;;;;;6.55;4.05;;;;;;;10.92;76.23;100193.34;5002914;28;20028;-75
2022/09/29 11:24:42;;;;;;;6.07;4.13;;;;;;;10.95;75.60;100195.81;5001114;28;20022;-75
2022/09/29 11:27:19;;;;;;;6.53;3.83;;;;;;;11.00;76.36;100196.50;5001635;28;20144;-75
2022/09/29 11:30:00;;;;;;;6.90;3.60;;;;;;;11.03;74.63;100196.38;5003451;28;20037;-75
2022/09/29 11:32:48;;;;;;;5.15;3.22;;;;;;;11.05;74.57;100193.72;5000466;28;20030;-74
2022/09/29 11:35:29;;;;;;;4.13;3.05;;;;;;;11.06;72.81;100201.50;5002515;28;20127;-75
2022/09/29 11:38:01;;;;;;;6.15;2.90;;;;;;;11.06;72.13;100196.28;4999441;28;20037;-74
2022/09/29 11:40:35;;;;;;;4.13;2.65;;;;;;;11.08;70.83;100198.81;5001931;28;20034;-74
2022/09/29 11:43:33;;;;;;;4.10;2.88;;;;;;;11.08;72.54;100202.28;5001891;28;20060;-75
2022/09/29 11:46:26;;;;;;;5.28;3.15;;;;;;;11.11;73.56;100208.25;4999893;28;20042;-75
2022/09/29 11:49:00;;;;;;;7.05;3.40;;;;;;;11.06;72.10;100204.09;4992083;28;20050;-75
2022/09/29 11:52:04;;;;;;;4.80;3.13;;;;;;;11.09;73.37;100205.72;5006293;28;20036;-74
2022/09/29 11:55:05;;;;;;;4.85;3.42;;;;;;;11.19;73.79;100203.63;5006247;28;20045;-75